sensor_id;sensor_type;location;lat;lon;timestamp;temperature;humidity
64718;DHT22;62506;46.070;14.492;2023-02-01T00:01:20;21.10;45.90
64718;DHT22;62506;46.070;14.492;2023-02-01T00:03:45;21.10;45.90
64718;DHT22;62506;46.070;14.492;2023-02-01T00:06:11;21.10;45.90
64718;DHT22;62506;46.070;14.492;2023-02-01T00:08:36;21.10;46.00
64718;DHT22;62506;46.070;14.492;2023-02-01T00:11:06;21.10;45.90
64718;DHT22;62506;46.070;14.492;2023-02-01T00:13:32;21.10;45.90
64718;DHT22;62506;46.070;14.492;2023-02-01T00:18:30;21.10;45.90
64718;DHT22;62506;46.070;14.492;2023-02-01T00:20:55;21.00;45.90
64718;DHT22;62506;46.070;14.492;2023-02-01T00:23:21;21.10;46.00
64718;DHT22;62506;46.070;14.492;2023-02-01T00:25:46;21.00;46.00
64718;DHT22;62506;46.070;14.492;2023-02-01T00:28:12;21.00;46.10
64718;DHT22;62506;46.070;14.492;2023-02-01T00:30:38;21.10;46.20
64718;DHT22;62506;46.070;14.492;2023-02-01T00:33:03;21.00;46.10
64718;DHT22;62506;46.070;14.492;2023-02-01T00:35:29;21.00;46.40
64718;DHT22;62506;46.070;14.492;2023-02-01T00:37:54;21.00;46.10
64718;DHT22;62506;46.070;14.492;2023-02-01T00:40:20;21.00;46.20
64718;DHT22;62506;46.070;14.492;2023-02-01T00:42:46;21.00;46.20
64718;DHT22;62506;46.070;14.492;2023-02-01T00:45:11;21.00;46.20
64718;DHT22;62506;46.070;14.492;2023-02-01T00:47:37;21.00;46.20
64718;DHT22;62506;46.070;14.492;2023-02-01T00:50:02;21.00;46.40
64718;DHT22;62506;46.070;14.492;2023-02-01T00:52:28;21.00;46.30
64718;DHT22;62506;46.070;14.492;2023-02-01T00:54:54;21.00;46.30
64718;DHT22;62506;46.070;14.492;2023-02-01T00:57:19;21.00;46.20
64718;DHT22;62506;46.070;14.492;2023-02-01T00:59:45;21.00;46.30
64718;DHT22;62506;46.070;14.492;2023-02-01T01:02:10;20.90;46.20
64718;DHT22;62506;46.070;14.492;2023-02-01T01:04:38;20.90;46.20
64718;DHT22;62506;46.070;14.492;2023-02-01T01:07:03;21.00;46.20
64718;DHT22;62506;46.070;14.492;2023-02-01T01:09:29;20.90;46.20
64718;DHT22;62506;46.070;14.492;2023-02-01T01:11:54;20.90;46.20
64718;DHT22;62506;46.070;14.492;2023-02-01T01:14:20;20.90;46.20
64718;DHT22;62506;46.070;14.492;2023-02-01T01:16:45;20.90;46.30
64718;DHT22;62506;46.070;14.492;2023-02-01T01:19:11;20.90;46.20
64718;DHT22;62506;46.070;14.492;2023-02-01T01:21:36;20.90;46.20
64718;DHT22;62506;46.070;14.492;2023-02-01T01:24:02;20.90;46.30
64718;DHT22;62506;46.070;14.492;2023-02-01T01:26:28;20.90;46.40
64718;DHT22;62506;46.070;14.492;2023-02-01T01:28:55;20.90;46.40
64718;DHT22;62506;46.070;14.492;2023-02-01T01:31:21;20.90;46.40
64718;DHT22;62506;46.070;14.492;2023-02-01T01:33:47;20.90;46.50
64718;DHT22;62506;46.070;14.492;2023-02-01T01:36:13;20.90;46.50
64718;DHT22;62506;46.070;14.492;2023-02-01T01:38:39;20.90;46.50
64718;DHT22;62506;46.070;14.492;2023-02-01T01:41:05;20.90;46.30
64718;DHT22;62506;46.070;14.492;2023-02-01T01:43:50;20.90;46.30
64718;DHT22;62506;46.070;14.492;2023-02-01T01:46:20;20.90;46.30
64718;DHT22;62506;46.070;14.492;2023-02-01T01:48:48;20.90;46.30
64718;DHT22;62506;46.070;14.492;2023-02-01T01:51:15;20.90;46.30
64718;DHT22;62506;46.070;14.492;2023-02-01T01:56:42;20.90;46.40
64718;DHT22;62506;46.070;14.492;2023-02-01T01:59:08;20.90;46.40
64718;DHT22;62506;46.070;14.492;2023-02-01T02:01:34;20.90;47.10
64718;DHT22;62506;46.070;14.492;2023-02-01T02:04:00;20.90;46.40
64718;DHT22;62506;46.070;14.492;2023-02-01T02:06:29;20.90;46.40
64718;DHT22;62506;46.070;14.492;2023-02-01T02:08:55;20.90;46.40
64718;DHT22;62506;46.070;14.492;2023-02-01T02:11:21;20.90;46.40
64718;DHT22;62506;46.070;14.492;2023-02-01T02:13:50;20.90;46.40
64718;DHT22;62506;46.070;14.492;2023-02-01T02:19:01;20.90;46.30
64718;DHT22;62506;46.070;14.492;2023-02-01T02:27:00;20.90;46.40
64718;DHT22;62506;46.070;14.492;2023-02-01T02:34:48;20.90;46.40
64718;DHT22;62506;46.070;14.492;2023-02-01T02:37:23;20.90;46.30
64718;DHT22;62506;46.070;14.492;2023-02-01T02:40:06;20.90;46.30
64718;DHT22;62506;46.070;14.492;2023-02-01T02:42:41;20.90;46.40
64718;DHT22;62506;46.070;14.492;2023-02-01T02:45:32;20.90;46.40
64718;DHT22;62506;46.070;14.492;2023-02-01T02:50:52;20.90;46.30
64718;DHT22;62506;46.070;14.492;2023-02-01T02:53:41;20.90;46.30
64718;DHT22;62506;46.070;14.492;2023-02-01T02:56:26;20.90;46.40
64718;DHT22;62506;46.070;14.492;2023-02-01T02:59:11;20.90;46.50
64718;DHT22;62506;46.070;14.492;2023-02-01T03:01:56;20.90;46.50
64718;DHT22;62506;46.070;14.492;2023-02-01T03:04:40;20.90;46.50
64718;DHT22;62506;46.070;14.492;2023-02-01T03:07:45;20.80;46.50
64718;DHT22;62506;46.070;14.492;2023-02-01T03:10:03;20.80;46.50
64718;DHT22;62506;46.070;14.492;2023-02-01T03:12:31;20.80;46.60
64718;DHT22;62506;46.070;14.492;2023-02-01T03:15:39;20.80;46.60
64718;DHT22;62506;46.070;14.492;2023-02-01T03:18:10;20.80;46.60
64718;DHT22;62506;46.070;14.492;2023-02-01T03:20:37;20.80;46.60
64718;DHT22;62506;46.070;14.492;2023-02-01T03:23:03;20.80;46.70
64718;DHT22;62506;46.070;14.492;2023-02-01T03:25:31;20.80;46.60
64718;DHT22;62506;46.070;14.492;2023-02-01T03:30:27;20.80;46.70
64718;DHT22;62506;46.070;14.492;2023-02-01T03:32:55;20.80;46.70
64718;DHT22;62506;46.070;14.492;2023-02-01T03:36:09;20.80;46.70
64718;DHT22;62506;46.070;14.492;2023-02-01T03:40:38;20.80;46.60
64718;DHT22;62506;46.070;14.492;2023-02-01T03:43:04;20.70;46.60
64718;DHT22;62506;46.070;14.492;2023-02-01T03:45:39;20.70;46.60
64718;DHT22;62506;46.070;14.492;2023-02-01T03:48:07;20.70;46.70
64718;DHT22;62506;46.070;14.492;2023-02-01T03:50:44;20.70;46.70
64718;DHT22;62506;46.070;14.492;2023-02-01T03:53:15;20.70;46.70
64718;DHT22;62506;46.070;14.492;2023-02-01T03:55:42;20.70;46.80
64718;DHT22;62506;46.070;14.492;2023-02-01T03:58:15;20.70;46.70
64718;DHT22;62506;46.070;14.492;2023-02-01T04:00:44;20.70;46.70
64718;DHT22;62506;46.070;14.492;2023-02-01T04:03:10;20.70;46.80
64718;DHT22;62506;46.070;14.492;2023-02-01T04:05:36;20.70;46.70
64718;DHT22;62506;46.070;14.492;2023-02-01T04:08:01;20.70;46.80
64718;DHT22;62506;46.070;14.492;2023-02-01T04:10:27;20.70;46.80
64718;DHT22;62506;46.070;14.492;2023-02-01T04:12:52;20.70;46.90
64718;DHT22;62506;46.070;14.492;2023-02-01T04:15:18;20.70;47.00
64718;DHT22;62506;46.070;14.492;2023-02-01T04:17:44;20.70;46.90
64718;DHT22;62506;46.070;14.492;2023-02-01T04:20:09;20.70;46.90
64718;DHT22;62506;46.070;14.492;2023-02-01T04:22:35;20.70;46.80
64718;DHT22;62506;46.070;14.492;2023-02-01T04:25:01;20.70;46.80
64718;DHT22;62506;46.070;14.492;2023-02-01T04:27:26;20.70;46.80
64718;DHT22;62506;46.070;14.492;2023-02-01T04:29:52;20.70;46.90
64718;DHT22;62506;46.070;14.492;2023-02-01T04:32:17;20.70;47.10
64718;DHT22;62506;46.070;14.492;2023-02-01T04:34:43;20.80;46.70
64718;DHT22;62506;46.070;14.492;2023-02-01T04:37:08;20.80;46.00
64718;DHT22;62506;46.070;14.492;2023-02-01T04:39:34;20.90;45.60
64718;DHT22;62506;46.070;14.492;2023-02-01T04:42:00;20.90;45.40
64718;DHT22;62506;46.070;14.492;2023-02-01T04:44:25;20.90;45.30
64718;DHT22;62506;46.070;14.492;2023-02-01T04:46:51;20.90;45.10
64718;DHT22;62506;46.070;14.492;2023-02-01T04:49:16;21.00;45.10
64718;DHT22;62506;46.070;14.492;2023-02-01T04:51:42;21.00;45.10
64718;DHT22;62506;46.070;14.492;2023-02-01T04:54:08;21.00;45.00
64718;DHT22;62506;46.070;14.492;2023-02-01T04:56:33;21.00;44.90
64718;DHT22;62506;46.070;14.492;2023-02-01T04:59:00;21.10;45.10
64718;DHT22;62506;46.070;14.492;2023-02-01T05:01:27;21.10;45.20
64718;DHT22;62506;46.070;14.492;2023-02-01T05:03:53;21.10;45.30
64718;DHT22;62506;46.070;14.492;2023-02-01T05:06:18;21.10;45.40
64718;DHT22;62506;46.070;14.492;2023-02-01T05:08:44;21.10;45.40
64718;DHT22;62506;46.070;14.492;2023-02-01T05:11:09;21.10;45.50
64718;DHT22;62506;46.070;14.492;2023-02-01T05:13:55;21.20;45.40
64718;DHT22;62506;46.070;14.492;2023-02-01T05:16:20;21.20;46.20
64718;DHT22;62506;46.070;14.492;2023-02-01T05:18:46;21.30;45.70
64718;DHT22;62506;46.070;14.492;2023-02-01T05:21:12;21.30;45.40
64718;DHT22;62506;46.070;14.492;2023-02-01T05:23:37;21.30;45.30
64718;DHT22;62506;46.070;14.492;2023-02-01T05:26:23;21.40;45.00
64718;DHT22;62506;46.070;14.492;2023-02-01T05:28:49;21.50;46.30
64718;DHT22;62506;46.070;14.492;2023-02-01T05:31:14;21.50;46.60
64718;DHT22;62506;46.070;14.492;2023-02-01T05:33:40;21.60;46.10
64718;DHT22;62506;46.070;14.492;2023-02-01T05:36:06;21.60;45.60
64718;DHT22;62506;46.070;14.492;2023-02-01T05:38:34;21.60;45.40
64718;DHT22;62506;46.070;14.492;2023-02-01T05:40:59;21.60;45.30
64718;DHT22;62506;46.070;14.492;2023-02-01T05:43:25;21.60;45.00
64718;DHT22;62506;46.070;14.492;2023-02-01T05:45:54;21.60;44.50
64718;DHT22;62506;46.070;14.492;2023-02-01T05:48:19;21.60;45.30
64718;DHT22;62506;46.070;14.492;2023-02-01T05:50:45;21.60;45.00
64718;DHT22;62506;46.070;14.492;2023-02-01T05:53:10;21.50;45.10
64718;DHT22;62506;46.070;14.492;2023-02-01T05:55:36;21.50;45.00
64718;DHT22;62506;46.070;14.492;2023-02-01T05:58:03;21.50;45.70
64718;DHT22;62506;46.070;14.492;2023-02-01T06:00:28;21.50;43.90
64718;DHT22;62506;46.070;14.492;2023-02-01T06:02:54;21.50;44.80
64718;DHT22;62506;46.070;14.492;2023-02-01T06:05:19;21.50;45.10
64718;DHT22;62506;46.070;14.492;2023-02-01T06:07:45;21.40;45.70
64718;DHT22;62506;46.070;14.492;2023-02-01T06:10:10;21.50;46.10
64718;DHT22;62506;46.070;14.492;2023-02-01T06:12:36;21.50;46.20
64718;DHT22;62506;46.070;14.492;2023-02-01T06:15:02;21.40;45.60
64718;DHT22;62506;46.070;14.492;2023-02-01T06:17:28;21.40;45.30
64718;DHT22;62506;46.070;14.492;2023-02-01T06:19:53;21.40;45.10
64718;DHT22;62506;46.070;14.492;2023-02-01T06:22:19;21.30;45.10
64718;DHT22;62506;46.070;14.492;2023-02-01T06:24:45;21.30;45.00
64718;DHT22;62506;46.070;14.492;2023-02-01T06:27:10;21.30;44.90
64718;DHT22;62506;46.070;14.492;2023-02-01T06:29:36;21.30;44.80
64718;DHT22;62506;46.070;14.492;2023-02-01T06:32:02;21.30;44.80
64718;DHT22;62506;46.070;14.492;2023-02-01T06:34:28;21.30;44.70
64718;DHT22;62506;46.070;14.492;2023-02-01T06:36:53;21.20;44.50
64718;DHT22;62506;46.070;14.492;2023-02-01T06:39:20;21.20;44.50
64718;DHT22;62506;46.070;14.492;2023-02-01T06:41:46;21.20;44.30
64718;DHT22;62506;46.070;14.492;2023-02-01T06:44:12;21.20;44.30
64718;DHT22;62506;46.070;14.492;2023-02-01T06:46:37;21.20;44.30
64718;DHT22;62506;46.070;14.492;2023-02-01T06:49:03;21.20;44.30
64718;DHT22;62506;46.070;14.492;2023-02-01T06:51:28;21.10;44.30
64718;DHT22;62506;46.070;14.492;2023-02-01T06:53:55;21.10;44.30
64718;DHT22;62506;46.070;14.492;2023-02-01T06:56:20;21.10;44.30
64718;DHT22;62506;46.070;14.492;2023-02-01T06:58:46;21.10;44.20
64718;DHT22;62506;46.070;14.492;2023-02-01T07:01:12;21.10;44.20
64718;DHT22;62506;46.070;14.492;2023-02-01T07:03:38;21.10;44.20
64718;DHT22;62506;46.070;14.492;2023-02-01T07:06:04;21.10;44.10
64718;DHT22;62506;46.070;14.492;2023-02-01T07:08:30;21.10;44.10
64718;DHT22;62506;46.070;14.492;2023-02-01T07:10:56;21.10;44.00
64718;DHT22;62506;46.070;14.492;2023-02-01T07:13:21;21.10;43.90
64718;DHT22;62506;46.070;14.492;2023-02-01T07:15:47;21.10;43.90
64718;DHT22;62506;46.070;14.492;2023-02-01T07:18:16;21.10;43.90
64718;DHT22;62506;46.070;14.492;2023-02-01T07:20:41;21.10;43.80
64718;DHT22;62506;46.070;14.492;2023-02-01T07:23:10;21.10;43.80
64718;DHT22;62506;46.070;14.492;2023-02-01T07:25:35;21.10;43.70
64718;DHT22;62506;46.070;14.492;2023-02-01T07:28:01;21.10;43.70
64718;DHT22;62506;46.070;14.492;2023-02-01T07:30:27;21.10;43.70
64718;DHT22;62506;46.070;14.492;2023-02-01T07:32:53;21.10;43.70
64718;DHT22;62506;46.070;14.492;2023-02-01T07:35:18;21.10;43.70
64718;DHT22;62506;46.070;14.492;2023-02-01T07:37:44;21.10;43.70
64718;DHT22;62506;46.070;14.492;2023-02-01T07:40:09;21.10;43.60
64718;DHT22;62506;46.070;14.492;2023-02-01T07:42:35;21.10;43.50
64718;DHT22;62506;46.070;14.492;2023-02-01T07:45:01;21.10;43.50
64718;DHT22;62506;46.070;14.492;2023-02-01T07:47:28;21.20;43.50
64718;DHT22;62506;46.070;14.492;2023-02-01T07:49:53;21.20;43.50
64718;DHT22;62506;46.070;14.492;2023-02-01T07:52:19;21.20;43.40
64718;DHT22;62506;46.070;14.492;2023-02-01T07:54:44;21.20;43.20
64718;DHT22;62506;46.070;14.492;2023-02-01T07:57:10;21.20;43.30
64718;DHT22;62506;46.070;14.492;2023-02-01T07:59:37;21.20;43.20
64718;DHT22;62506;46.070;14.492;2023-02-01T08:02:22;21.20;43.10
64718;DHT22;62506;46.070;14.492;2023-02-01T08:04:48;21.20;43.00
64718;DHT22;62506;46.070;14.492;2023-02-01T08:07:13;21.20;43.10
64718;DHT22;62506;46.070;14.492;2023-02-01T08:09:39;21.30;43.10
64718;DHT22;62506;46.070;14.492;2023-02-01T08:12:04;21.20;43.00
64718;DHT22;62506;46.070;14.492;2023-02-01T08:14:30;21.20;43.00
64718;DHT22;62506;46.070;14.492;2023-02-01T08:16:55;21.20;42.90
64718;DHT22;62506;46.070;14.492;2023-02-01T08:19:21;21.30;42.90
64718;DHT22;62506;46.070;14.492;2023-02-01T08:21:46;21.30;42.90
64718;DHT22;62506;46.070;14.492;2023-02-01T08:24:13;21.30;42.70
64718;DHT22;62506;46.070;14.492;2023-02-01T08:26:39;21.30;42.80
64718;DHT22;62506;46.070;14.492;2023-02-01T08:29:05;21.30;42.70
64718;DHT22;62506;46.070;14.492;2023-02-01T08:31:31;21.30;42.70
64718;DHT22;62506;46.070;14.492;2023-02-01T08:33:58;21.30;42.80
64718;DHT22;62506;46.070;14.492;2023-02-01T08:36:24;21.30;42.70
64718;DHT22;62506;46.070;14.492;2023-02-01T08:38:50;21.30;42.70
64718;DHT22;62506;46.070;14.492;2023-02-01T08:41:17;21.30;42.70
64718;DHT22;62506;46.070;14.492;2023-02-01T08:43:43;21.30;42.60
64718;DHT22;62506;46.070;14.492;2023-02-01T08:46:09;21.30;42.60
64718;DHT22;62506;46.070;14.492;2023-02-01T08:48:35;21.30;42.60
64718;DHT22;62506;46.070;14.492;2023-02-01T08:51:01;21.30;42.60
64718;DHT22;62506;46.070;14.492;2023-02-01T08:53:27;21.30;42.60
64718;DHT22;62506;46.070;14.492;2023-02-01T08:55:52;21.30;42.60
64718;DHT22;62506;46.070;14.492;2023-02-01T08:58:18;21.30;42.40
64718;DHT22;62506;46.070;14.492;2023-02-01T09:00:45;21.30;42.30
64718;DHT22;62506;46.070;14.492;2023-02-01T09:03:11;21.30;42.30
64718;DHT22;62506;46.070;14.492;2023-02-01T09:05:37;21.30;42.40
64718;DHT22;62506;46.070;14.492;2023-02-01T09:08:03;21.30;42.40
64718;DHT22;62506;46.070;14.492;2023-02-01T09:10:29;21.30;42.30
64718;DHT22;62506;46.070;14.492;2023-02-01T09:12:54;21.30;42.30
64718;DHT22;62506;46.070;14.492;2023-02-01T09:15:20;21.30;42.50
64718;DHT22;62506;46.070;14.492;2023-02-01T09:17:45;21.30;42.50
64718;DHT22;62506;46.070;14.492;2023-02-01T09:20:12;21.30;42.30
64718;DHT22;62506;46.070;14.492;2023-02-01T09:22:39;21.30;42.50
64718;DHT22;62506;46.070;14.492;2023-02-01T09:25:05;21.30;42.50
64718;DHT22;62506;46.070;14.492;2023-02-01T09:27:30;21.30;42.40
64718;DHT22;62506;46.070;14.492;2023-02-01T09:29:56;21.30;42.30
64718;DHT22;62506;46.070;14.492;2023-02-01T09:32:22;21.30;42.50
64718;DHT22;62506;46.070;14.492;2023-02-01T09:34:48;21.30;42.30
64718;DHT22;62506;46.070;14.492;2023-02-01T09:37:14;21.30;42.50
64718;DHT22;62506;46.070;14.492;2023-02-01T09:39:40;21.30;42.20
64718;DHT22;62506;46.070;14.492;2023-02-01T09:47:09;21.30;42.10
64718;DHT22;62506;46.070;14.492;2023-02-01T09:49:37;21.30;42.10
64718;DHT22;62506;46.070;14.492;2023-02-01T09:52:07;21.30;42.00
64718;DHT22;62506;46.070;14.492;2023-02-01T09:54:47;21.40;42.00
64718;DHT22;62506;46.070;14.492;2023-02-01T09:57:16;21.40;42.80
64718;DHT22;62506;46.070;14.492;2023-02-01T09:59:44;21.30;42.00
64718;DHT22;62506;46.070;14.492;2023-02-01T10:02:19;21.30;42.10
64718;DHT22;62506;46.070;14.492;2023-02-01T10:04:46;21.30;42.10
64718;DHT22;62506;46.070;14.492;2023-02-01T10:10:05;21.30;42.10
64718;DHT22;62506;46.070;14.492;2023-02-01T10:15:05;21.30;42.20
64718;DHT22;62506;46.070;14.492;2023-02-01T10:20:04;21.30;42.20
64718;DHT22;62506;46.070;14.492;2023-02-01T10:22:46;21.30;42.20
64718;DHT22;62506;46.070;14.492;2023-02-01T10:27:41;21.30;42.20
64718;DHT22;62506;46.070;14.492;2023-02-01T10:30:20;21.30;42.30
64718;DHT22;62506;46.070;14.492;2023-02-01T10:32:47;21.20;42.30
64718;DHT22;62506;46.070;14.492;2023-02-01T10:35:18;21.30;42.30
64718;DHT22;62506;46.070;14.492;2023-02-01T10:37:44;21.30;42.20
64718;DHT22;62506;46.070;14.492;2023-02-01T10:40:15;21.30;42.20
64718;DHT22;62506;46.070;14.492;2023-02-01T10:42:42;21.20;42.20
64718;DHT22;62506;46.070;14.492;2023-02-01T10:45:11;21.20;42.10
64718;DHT22;62506;46.070;14.492;2023-02-01T10:47:37;21.20;42.20
64718;DHT22;62506;46.070;14.492;2023-02-01T10:52:50;21.20;42.30
64718;DHT22;62506;46.070;14.492;2023-02-01T10:55:28;21.20;42.20
64718;DHT22;62506;46.070;14.492;2023-02-01T10:57:58;21.20;42.30
64718;DHT22;62506;46.070;14.492;2023-02-01T11:00:24;21.20;42.20
64718;DHT22;62506;46.070;14.492;2023-02-01T11:02:50;21.20;42.30
64718;DHT22;62506;46.070;14.492;2023-02-01T11:05:16;21.10;42.30
64718;DHT22;62506;46.070;14.492;2023-02-01T11:07:50;21.10;42.40
64718;DHT22;62506;46.070;14.492;2023-02-01T11:13:02;21.10;42.40
64718;DHT22;62506;46.070;14.492;2023-02-01T11:15:28;21.10;42.40
64718;DHT22;62506;46.070;14.492;2023-02-01T11:17:54;21.10;42.50
64718;DHT22;62506;46.070;14.492;2023-02-01T11:22:56;21.10;42.60
64718;DHT22;62506;46.070;14.492;2023-02-01T11:25:22;21.10;42.50
64718;DHT22;62506;46.070;14.492;2023-02-01T11:27:53;21.10;42.50
64718;DHT22;62506;46.070;14.492;2023-02-01T11:30:22;21.10;42.50
64718;DHT22;62506;46.070;14.492;2023-02-01T11:32:52;21.10;42.50
64718;DHT22;62506;46.070;14.492;2023-02-01T11:35:19;21.00;42.50
64718;DHT22;62506;46.070;14.492;2023-02-01T11:37:48;21.00;42.50
64718;DHT22;62506;46.070;14.492;2023-02-01T11:42:52;21.00;42.60
64718;DHT22;62506;46.070;14.492;2023-02-01T11:45:29;21.00;42.80
64718;DHT22;62506;46.070;14.492;2023-02-01T11:47:56;21.00;42.60
64718;DHT22;62506;46.070;14.492;2023-02-01T11:53:18;21.00;42.70
64718;DHT22;62506;46.070;14.492;2023-02-01T12:13:41;21.00;42.90
64718;DHT22;62506;46.070;14.492;2023-02-01T12:23:44;20.90;42.80
64718;DHT22;62506;46.070;14.492;2023-02-01T12:26:22;21.00;42.80
64718;DHT22;62506;46.070;14.492;2023-02-01T12:29:14;20.90;42.80
64718;DHT22;62506;46.070;14.492;2023-02-01T12:34:19;20.90;42.80
64718;DHT22;62506;46.070;14.492;2023-02-01T12:36:47;20.90;42.90
64718;DHT22;62506;46.070;14.492;2023-02-01T12:42:10;20.90;42.90
64718;DHT22;62506;46.070;14.492;2023-02-01T12:44:59;20.90;43.10
64718;DHT22;62506;46.070;14.492;2023-02-01T12:52:35;20.90;43.10
64718;DHT22;62506;46.070;14.492;2023-02-01T12:55:13;20.90;43.00
64718;DHT22;62506;46.070;14.492;2023-02-01T12:57:42;20.90;43.00
64718;DHT22;62506;46.070;14.492;2023-02-01T13:00:34;20.90;43.20
64718;DHT22;62506;46.070;14.492;2023-02-01T13:11:28;20.90;43.10
64718;DHT22;62506;46.070;14.492;2023-02-01T13:18:57;20.90;43.20
64718;DHT22;62506;46.070;14.492;2023-02-01T13:21:26;20.90;43.20
64718;DHT22;62506;46.070;14.492;2023-02-01T13:23:53;20.90;43.20
64718;DHT22;62506;46.070;14.492;2023-02-01T13:26:19;20.90;43.20
64718;DHT22;62506;46.070;14.492;2023-02-01T13:40:09;20.90;43.20
64718;DHT22;62506;46.070;14.492;2023-02-01T13:42:31;20.90;44.00
64718;DHT22;62506;46.070;14.492;2023-02-01T13:45:04;20.90;43.20
64718;DHT22;62506;46.070;14.492;2023-02-01T13:47:35;20.90;43.20
64718;DHT22;62506;46.070;14.492;2023-02-01T13:50:43;20.90;43.50
64718;DHT22;62506;46.070;14.492;2023-02-01T13:55:25;20.90;43.40
64718;DHT22;62506;46.070;14.492;2023-02-01T13:57:59;20.80;43.30
64718;DHT22;62506;46.070;14.492;2023-02-01T14:13:24;20.80;43.50
64718;DHT22;62506;46.070;14.492;2023-02-01T14:16:13;20.80;43.50
64718;DHT22;62506;46.070;14.492;2023-02-01T14:24:23;20.80;43.50
64718;DHT22;62506;46.070;14.492;2023-02-01T14:26:45;20.80;43.50
64718;DHT22;62506;46.070;14.492;2023-02-01T14:34:16;20.70;43.50
64718;DHT22;62506;46.070;14.492;2023-02-01T14:36:50;20.70;43.70
64718;DHT22;62506;46.070;14.492;2023-02-01T14:39:21;20.70;43.70
64718;DHT22;62506;46.070;14.492;2023-02-01T14:41:47;20.70;43.60
64718;DHT22;62506;46.070;14.492;2023-02-01T14:44:22;20.70;43.70
64718;DHT22;62506;46.070;14.492;2023-02-01T14:49:33;20.70;43.80
64718;DHT22;62506;46.070;14.492;2023-02-01T14:52:01;20.70;43.80
64718;DHT22;62506;46.070;14.492;2023-02-01T14:54:27;20.70;44.10
64718;DHT22;62506;46.070;14.492;2023-02-01T14:56:53;20.70;43.80
64718;DHT22;62506;46.070;14.492;2023-02-01T14:59:20;20.70;43.90
64718;DHT22;62506;46.070;14.492;2023-02-01T15:01:53;20.70;43.90
64718;DHT22;62506;46.070;14.492;2023-02-01T15:04:19;20.70;43.80
64718;DHT22;62506;46.070;14.492;2023-02-01T15:06:53;20.70;43.50
64718;DHT22;62506;46.070;14.492;2023-02-01T15:09:25;20.80;43.40
64718;DHT22;62506;46.070;14.492;2023-02-01T15:12:03;20.90;43.20
64718;DHT22;62506;46.070;14.492;2023-02-01T15:14:36;20.90;43.10
64718;DHT22;62506;46.070;14.492;2023-02-01T15:17:02;21.00;43.10
64718;DHT22;62506;46.070;14.492;2023-02-01T15:19:29;21.10;43.10
64718;DHT22;62506;46.070;14.492;2023-02-01T15:21:56;21.10;43.00
64718;DHT22;62506;46.070;14.492;2023-02-01T15:24:23;21.10;42.90
64718;DHT22;62506;46.070;14.492;2023-02-01T15:26:50;21.20;43.10
64718;DHT22;62506;46.070;14.492;2023-02-01T15:29:16;21.20;43.00
64718;DHT22;62506;46.070;14.492;2023-02-01T15:31:47;21.30;43.00
64718;DHT22;62506;46.070;14.492;2023-02-01T15:34:13;21.30;42.90
64718;DHT22;62506;46.070;14.492;2023-02-01T15:36:39;21.30;42.90
64718;DHT22;62506;46.070;14.492;2023-02-01T15:39:24;21.30;42.90
64718;DHT22;62506;46.070;14.492;2023-02-01T15:41:52;21.30;43.00
64718;DHT22;62506;46.070;14.492;2023-02-01T15:44:20;21.30;43.60
64718;DHT22;62506;46.070;14.492;2023-02-01T15:46:48;21.40;43.10
64718;DHT22;62506;46.070;14.492;2023-02-01T15:51:46;21.40;43.20
64718;DHT22;62506;46.070;14.492;2023-02-01T15:54:14;21.40;43.10
64718;DHT22;62506;46.070;14.492;2023-02-01T15:56:46;21.50;43.80
64718;DHT22;62506;46.070;14.492;2023-02-01T15:59:17;21.50;43.70
64718;DHT22;62506;46.070;14.492;2023-02-01T16:01:43;21.50;43.40
64718;DHT22;62506;46.070;14.492;2023-02-01T16:06:35;21.60;44.20
64718;DHT22;62506;46.070;14.492;2023-02-01T16:09:03;21.50;42.90
64718;DHT22;62506;46.070;14.492;2023-02-01T16:11:39;21.50;43.20
64718;DHT22;62506;46.070;14.492;2023-02-01T16:14:05;21.50;43.50
64718;DHT22;62506;46.070;14.492;2023-02-01T16:16:31;21.50;43.60
64718;DHT22;62506;46.070;14.492;2023-02-01T16:18:57;21.40;43.50
64718;DHT22;62506;46.070;14.492;2023-02-01T16:21:22;21.50;43.30
64718;DHT22;62506;46.070;14.492;2023-02-01T16:23:52;21.50;43.50
64718;DHT22;62506;46.070;14.492;2023-02-01T16:26:18;21.50;43.90
64718;DHT22;62506;46.070;14.492;2023-02-01T16:28:44;21.60;43.80
64718;DHT22;62506;46.070;14.492;2023-02-01T16:31:11;21.60;43.60
64718;DHT22;62506;46.070;14.492;2023-02-01T16:33:53;21.60;43.50
64718;DHT22;62506;46.070;14.492;2023-02-01T16:36:19;21.60;43.50
64718;DHT22;62506;46.070;14.492;2023-02-01T16:38:45;21.60;43.50
64718;DHT22;62506;46.070;14.492;2023-02-01T16:41:16;21.70;43.40
64718;DHT22;62506;46.070;14.492;2023-02-01T16:43:43;21.70;43.60
64718;DHT22;62506;46.070;14.492;2023-02-01T16:46:15;21.70;42.30
64718;DHT22;62506;46.070;14.492;2023-02-01T16:48:42;21.70;42.80
64718;DHT22;62506;46.070;14.492;2023-02-01T16:51:11;21.70;42.90
64718;DHT22;62506;46.070;14.492;2023-02-01T16:53:38;21.70;43.00
64718;DHT22;62506;46.070;14.492;2023-02-01T16:56:09;21.70;43.00
64718;DHT22;62506;46.070;14.492;2023-02-01T16:58:36;21.80;43.10
64718;DHT22;62506;46.070;14.492;2023-02-01T17:01:27;21.80;43.10
64718;DHT22;62506;46.070;14.492;2023-02-01T17:03:53;21.80;43.10
64718;DHT22;62506;46.070;14.492;2023-02-01T17:06:24;21.80;43.10
64718;DHT22;62506;46.070;14.492;2023-02-01T17:08:51;21.80;43.20
64718;DHT22;62506;46.070;14.492;2023-02-01T17:11:17;21.80;43.50
64718;DHT22;62506;46.070;14.492;2023-02-01T17:13:43;21.90;43.50
64718;DHT22;62506;46.070;14.492;2023-02-01T17:18:39;21.80;43.40
64718;DHT22;62506;46.070;14.492;2023-02-01T17:21:04;21.80;43.80
64718;DHT22;62506;46.070;14.492;2023-02-01T17:23:30;21.80;44.20
64718;DHT22;62506;46.070;14.492;2023-02-01T17:25:56;21.90;44.00
64718;DHT22;62506;46.070;14.492;2023-02-01T17:28:21;21.90;44.70
64718;DHT22;62506;46.070;14.492;2023-02-01T17:30:47;21.90;43.90
64718;DHT22;62506;46.070;14.492;2023-02-01T17:33:18;22.00;44.00
64718;DHT22;62506;46.070;14.492;2023-02-01T17:35:45;22.00;43.90
64718;DHT22;62506;46.070;14.492;2023-02-01T17:38:12;22.00;43.90
64718;DHT22;62506;46.070;14.492;2023-02-01T17:40:38;22.10;43.80
64718;DHT22;62506;46.070;14.492;2023-02-01T17:43:03;22.10;43.60
64718;DHT22;62506;46.070;14.492;2023-02-01T17:45:33;22.10;43.70
64718;DHT22;62506;46.070;14.492;2023-02-01T17:48:03;22.10;43.70
64718;DHT22;62506;46.070;14.492;2023-02-01T17:50:30;22.20;43.60
64718;DHT22;62506;46.070;14.492;2023-02-01T17:53:04;22.20;43.90
64718;DHT22;62506;46.070;14.492;2023-02-01T17:55:50;22.40;44.40